This is the latest recevied weather packets stored in our database for station/object AC1IX. If no packets are shown the sender has not sent any weather packets the latest 10 day(s).
| Time | Temp. | Humidity | Pressure | Rain* | Wind** | Luminosity | Snow |
|---|---|---|---|---|---|---|---|
| 1777986687 | 18.89° C | 67% | 1009.6 hPa | 0 mm | - | 186 W/m² | - |
| 1777986385 | 18.33° C | 72% | 1009.4 hPa | 0 mm | - | 430 W/m² | - |
| 1777986084 | 17.78° C | 69% | 1009.4 hPa | 0 mm | - | 380 W/m² | - |
| 1777985780 | 17.78° C | 67% | 1009.5 hPa | 0 mm | - | 171 W/m² | - |
| 1777984870 | 16.67° C | 75% | 1009.4 hPa | 0 mm | - | 183 W/m² | - |
| 1777984566 | 16.11° C | 81% | 1009.5 hPa | 0 mm | - | 283 W/m² | - |
| 1777984262 | 15.56° C | 82% | 1009.3 hPa | 0 mm | - | 124 W/m² | - |
| 1777983959 | 15.56° C | 87% | 1009.1 hPa | 0 mm | - | 113 W/m² | - |
| 1777982442 | 13.33° C | 98% | 1009.4 hPa | 0 mm | - | 88 W/m² | - |
| 1777981531 | 12.78° C | 99% | 1009.6 hPa | 0 mm | - | 89 W/m² | - |
| 1777980924 | 12.22° C | 98% | 1009.6 hPa | 0 mm | - | 93 W/m² | - |
| 1777980620 | 12.22° C | 97% | 1009.5 hPa | 0 mm | - | 81 W/m² | - |
| 1777980317 | 12.22° C | 97% | 1009.7 hPa | 0 mm | - | 61 W/m² | - |
| 1777980015 | 12.22° C | 95% | 1009.6 hPa | 0 mm | - | 59 W/m² | - |
| 1777979714 | 12.22° C | 94% | 1009.6 hPa | 1.27 mm | - | 49 W/m² | - |
| 1777978804 | 13.33° C | 87% | 1009.5 hPa | 1.27 mm | - | 9 W/m² | - |
| 1777977288 | 15.56° C | 63% | 1009.7 hPa | 0 mm | - | 42 W/m² | - |
| 1777976985 | 15° C | 64% | 1009.3 hPa | 0 mm | - | 52 W/m² | - |
| 1777976682 | 15° C | 65% | 1009.3 hPa | 0 mm | - | 62 W/m² | - |
| 1777976379 | 15° C | 65% | 1009.2 hPa | 0 mm | - | 40 W/m² | - |
| 1777976078 | 15° C | 64% | 1009.1 hPa | 0 mm | - | 15 W/m² | - |
| 1777975774 | 15° C | 64% | 1008.8 hPa | 0 mm | - | 9 W/m² | - |
| 1777975471 | 15° C | 65% | 1008.8 hPa | 0 mm | - | 7 W/m² | - |
| 1777975167 | 15° C | 63% | 1008.9 hPa | 0 mm | - | 6 W/m² | - |
| 1777974864 | 15° C | 64% | 1008.4 hPa | 0 mm | - | 4 W/m² | - |
* Rain latest hour (hover to see other rain measurements)
** Current wind speed in m/s (hover to see current wind gust speed)